Time;durP1;ratioP1;P1;durP2;ratioP2;P2;SDS_P1;SDS_P2;PMS_P1;PMS_P2;Temp;Humidity;BMP_temperature;BMP_pressure;BME280_temperature;BME280_humidity;BME280_pressure;Samples;Min_cycle;Max_cycle;Signal;HPM_P1;HPM_P2
2023/07/11 00:01:17;;;;;;;5.53;4.50;;;20.00;5.40;;;;;;4993134;28;20654;-70
2023/07/11 00:03:42;;;;;;;4.60;4.13;;;20.00;5.90;;;;;;4993631;28;20772;-70
2023/07/11 00:06:14;;;;;;;7.10;4.87;;;20.10;5.50;;;;;;4993601;28;20187;-69
2023/07/11 00:08:39;;;;;;;4.80;3.60;;;20.00;5.20;;;;;;4973655;28;20272;-69
2023/07/11 00:11:09;;;;;;;6.43;3.83;;;20.10;5.10;;;;;;4993123;28;20555;-70
2023/07/11 00:13:35;;;;;;;4.87;4.37;;;20.00;5.20;;;;;;4993105;28;20653;-70
2023/07/11 00:16:04;;;;;;;5.40;4.73;;;20.00;5.20;;;;;;4993290;28;20452;-69
2023/07/11 00:18:30;;;;;;;5.10;3.93;;;20.00;5.30;;;;;;4993206;28;20459;-68
2023/07/11 00:20:56;;;;;;;4.13;3.30;;;19.90;5.60;;;;;;4991661;28;20471;-69
2023/07/11 00:23:23;;;;;;;6.20;3.77;;;19.80;5.70;;;;;;4992877;28;20423;-69
2023/07/11 00:25:48;;;;;;;7.00;4.20;;;19.80;5.80;;;;;;4991920;28;20428;-69
2023/07/11 00:28:14;;;;;;;6.87;3.73;;;19.70;6.00;;;;;;4993145;28;20515;-69
2023/07/11 00:30:41;;;;;;;5.27;3.87;;;19.70;6.30;;;;;;4992982;28;20209;-69
2023/07/11 00:33:11;;;;;;;4.20;3.53;;;19.70;5.90;;;;;;4992900;28;20708;-68
2023/07/11 00:35:37;;;;;;;5.30;4.00;;;19.70;5.10;;;;;;4992785;28;20434;-69
2023/07/11 00:38:03;;;;;;;6.40;4.37;;;19.70;4.60;;;;;;4992993;28;20772;-69
2023/07/11 00:40:29;;;;;;;3.60;3.30;;;19.70;4.60;;;;;;4992739;28;20479;-69
2023/07/11 00:42:58;;;;;;;8.33;4.13;;;19.70;4.40;;;;;;4992946;28;20451;-69
2023/07/11 00:45:49;;;;;;;4.13;3.10;;;19.70;4.40;;;;;;4992645;28;20436;-69
2023/07/11 00:48:16;;;;;;;4.40;3.40;;;19.70;4.50;;;;;;4992777;28;20420;-69
2023/07/11 00:50:41;;;;;;;6.63;4.53;;;19.70;4.10;;;;;;4992680;28;20478;-69
2023/07/11 00:53:08;;;;;;;4.47;3.90;;;19.70;4.00;;;;;;4992543;28;20812;-69
2023/07/11 00:55:34;;;;;;;5.20;4.27;;;19.70;4.10;;;;;;4992527;28;20184;-69
2023/07/11 00:58:04;;;;;;;8.60;4.77;;;19.70;4.30;;;;;;4992729;28;20487;-69
2023/07/11 01:00:30;;;;;;;5.23;3.70;;;19.70;5.20;;;;;;4992418;28;20474;-68
2023/07/11 01:02:55;;;;;;;4.87;4.40;;;19.70;4.90;;;;;;4992505;28;20420;-69
2023/07/11 01:05:21;;;;;;;7.03;4.37;;;19.70;4.80;;;;;;4992917;28;20431;-69
2023/07/11 01:07:47;;;;;;;4.57;4.13;;;19.70;4.80;;;;;;4992315;28;20185;-70
2023/07/11 01:10:12;;;;;;;3.87;3.47;;;19.70;4.60;;;;;;4992454;28;20215;-70
2023/07/11 01:12:46;;;;;;;4.27;3.27;;;19.70;4.30;;;;;;4991587;28;20601;-69
2023/07/11 01:15:15;;;;;;;4.10;3.70;;;19.80;3.70;;;;;;4991856;28;20181;-70
2023/07/11 01:17:41;;;;;;;5.30;3.70;;;19.80;3.60;;;;;;4992526;28;20929;-68
2023/07/11 01:20:09;;;;;;;4.47;3.87;;;19.80;3.70;;;;;;4992409;28;20521;-69
2023/07/11 01:22:37;;;;;;;4.50;3.60;;;19.80;4.30;;;;;;4992111;28;20420;-69
2023/07/11 01:25:12;;;;;;;5.07;4.10;;;19.70;4.10;;;;;;4992412;28;20530;-69
2023/07/11 01:27:40;;;;;;;5.30;4.10;;;19.80;3.60;;;;;;4990922;28;20451;-69
2023/07/11 01:30:08;;;;;;;4.53;3.13;;;19.70;4.10;;;;;;4991895;28;20455;-70
2023/07/11 01:32:34;;;;;;;5.33;4.33;;;19.70;3.70;;;;;;4990704;28;20434;-69
2023/07/11 01:35:00;;;;;;;5.10;4.60;;;19.70;3.70;;;;;;4992087;28;20502;-69
2023/07/11 01:37:26;;;;;;;6.77;4.10;;;19.70;4.50;;;;;;4992390;28;20176;-69
2023/07/11 01:39:51;;;;;;;5.33;4.23;;;19.70;4.40;;;;;;4991920;28;20483;-69
2023/07/11 01:42:17;;;;;;;5.60;4.40;;;19.80;4.70;;;;;;4991835;28;20200;-69
2023/07/11 01:44:42;;;;;;;4.70;4.30;;;19.70;4.90;;;;;;4990620;28;20240;-69
2023/07/11 01:47:08;;;;;;;6.40;4.63;;;19.70;5.20;;;;;;4992045;28;20189;-70
2023/07/11 01:49:36;;;;;;;5.03;4.53;;;19.60;5.00;;;;;;4991900;28;20581;-69
2023/07/11 01:52:07;;;;;;;5.67;4.70;;;19.60;5.40;;;;;;4992268;28;20885;-68
2023/07/11 01:54:33;;;;;;;3.97;3.50;;;19.60;5.60;;;;;;4991993;28;20801;-68
2023/07/11 01:56:59;;;;;;;5.90;3.43;;;19.60;5.20;;;;;;4992267;28;20423;-69
2023/07/11 01:59:27;;;;;;;5.50;3.87;;;19.60;5.50;;;;;;4991975;28;20195;-69
2023/07/11 02:01:52;;;;;;;3.70;3.30;;;19.50;5.60;;;;;;4990463;28;20641;-69
2023/07/11 02:04:21;;;;;;;5.80;3.87;;;19.60;5.60;;;;;;4992023;28;20427;-68
2023/07/11 02:06:49;;;;;;;5.53;4.50;;;19.50;5.40;;;;;;4991636;28;20173;-69
2023/07/11 02:09:15;;;;;;;7.00;4.40;;;19.60;5.60;;;;;;4991820;28;20519;-69
2023/07/11 02:11:41;;;;;;;5.27;3.57;;;19.60;5.40;;;;;;4992319;28;20913;-69
2023/07/11 02:14:06;;;;;;;6.30;4.33;;;19.60;5.40;;;;;;4990709;28;20490;-70
2023/07/11 02:16:32;;;;;;;5.27;3.57;;;19.60;5.80;;;;;;4991602;28;20259;-69
2023/07/11 02:18:58;;;;;;;5.67;4.67;;;19.60;5.40;;;;;;4990598;28;20283;-69
2023/07/11 02:21:23;;;;;;;5.40;4.90;;;19.70;5.20;;;;;;4990626;28;20674;-69
2023/07/11 02:23:49;;;;;;;4.73;4.10;;;19.70;5.50;;;;;;4991765;28;20546;-69
2023/07/11 02:26:15;;;;;;;6.43;3.70;;;19.70;5.50;;;;;;4995272;28;20189;-68
2023/07/11 02:28:41;;;;;;;4.23;3.83;;;19.70;5.90;;;;;;4995254;28;20497;-69
2023/07/11 02:31:07;;;;;;;5.30;3.70;;;19.70;5.70;;;;;;4995136;28;20961;-69
2023/07/11 02:33:33;;;;;;;4.80;3.70;;;19.70;7.40;;;;;;4995069;28;20507;-69
2023/07/11 02:35:58;;;;;;;3.90;3.60;;;19.70;7.40;;;;;;4993803;28;20207;-69
2023/07/11 02:38:24;;;;;;;3.73;3.30;;;19.70;7.40;;;;;;4995085;28;20423;-69
2023/07/11 02:40:49;;;;;;;5.63;4.93;;;19.70;9.00;;;;;;4994962;28;20220;-69
2023/07/11 02:43:16;;;;;;;4.70;3.83;;;19.70;9.90;;;;;;4994777;28;20259;-69
2023/07/11 02:45:41;;;;;;;3.70;3.40;;;19.70;10.80;;;;;;4993480;28;20194;-70
2023/07/11 02:48:10;;;;;;;8.00;4.73;;;19.70;10.80;;;;;;4987020;28;20432;-69
2023/07/11 02:50:36;;;;;;;5.03;3.50;;;19.70;13.40;;;;;;4994714;28;20269;-69
2023/07/11 02:53:01;;;;;;;5.87;4.70;;;19.80;13.30;;;;;;4994923;28;20428;-68
2023/07/11 02:55:27;;;;;;;5.80;4.73;;;19.80;12.60;;;;;;4993205;28;20284;-69
2023/07/11 02:57:52;;;;;;;4.93;4.03;;;19.70;12.70;;;;;;4994930;28;20192;-69
2023/07/11 03:00:18;;;;;;;4.60;4.20;;;19.70;13.90;;;;;;4994454;28;20239;-69
2023/07/11 03:02:44;;;;;;;6.23;4.60;;;19.70;15.20;;;;;;4994577;28;20246;-70
2023/07/11 03:05:10;;;;;;;7.33;5.33;;;19.70;19.60;;;;;;4994702;28;20255;-69
2023/07/11 03:07:35;;;;;;;4.57;4.07;;;19.70;19.60;;;;;;4993006;28;20188;-69
2023/07/11 03:10:01;;;;;;;6.17;4.10;;;19.60;18.70;;;;;;4994652;28;20889;-69
2023/07/11 03:12:26;;;;;;;5.40;4.33;;;19.60;20.10;;;;;;4993813;28;20562;-69
2023/07/11 03:14:52;;;;;;;5.67;5.07;;;19.50;19.60;;;;;;4994393;28;20198;-70
2023/07/11 03:17:17;;;;;;;8.10;4.90;;;19.50;11.80;;;;;;4994131;28;20639;-69
2023/07/11 03:19:43;;;;;;;6.07;4.63;;;19.50;13.20;;;;;;4986723;28;20644;-68
2023/07/11 03:22:09;;;;;;;4.90;3.90;;;19.50;18.70;;;;;;4994382;28;20173;-69
2023/07/11 03:24:35;;;;;;;7.57;4.73;;;19.40;19.50;;;;;;4994571;28;20180;-69
2023/07/11 03:27:01;;;;;;;6.53;4.70;;;19.40;19.60;;;;;;4994584;28;20515;-68
2023/07/11 03:29:26;;;;;;;6.93;5.47;;;19.50;17.40;;;;;;4994385;28;20518;-68
2023/07/11 03:31:52;;;;;;;5.87;4.63;;;19.40;18.10;;;;;;4994010;28;20196;-68
2023/07/11 03:34:17;;;;;;;6.63;5.37;;;19.40;17.90;;;;;;4994027;28;20196;-68
2023/07/11 03:36:43;;;;;;;5.13;4.10;;;19.40;19.10;;;;;;4993276;28;20196;-68
2023/07/11 03:39:08;;;;;;;5.73;4.47;;;19.40;18.40;;;;;;4994092;28;20216;-68
2023/07/11 03:41:34;;;;;;;6.67;5.13;;;19.30;18.30;;;;;;4992357;28;20223;-68
2023/07/11 03:44:01;;;;;;;5.97;4.60;;;19.20;19.10;;;;;;4993786;28;20661;-68
2023/07/11 03:46:26;;;;;;;6.27;4.77;;;19.20;19.20;;;;;;4993877;28;20196;-68
2023/07/11 03:48:58;;;;;;;6.43;5.77;;;19.20;19.90;;;;;;4993661;28;20428;-69
2023/07/11 03:51:24;;;;;;;6.60;4.70;;;19.20;19.00;;;;;;4993750;28;20262;-68
2023/07/11 03:53:49;;;;;;;4.57;4.03;;;19.20;17.50;;;;;;4993478;28;20444;-69
2023/07/11 03:56:15;;;;;;;6.53;4.97;;;19.30;17.30;;;;;;4993970;28;20601;-68
2023/07/11 03:58:40;;;;;;;6.80;4.70;;;19.30;16.10;;;;;;4993747;28;20180;-68
2023/07/11 04:01:06;;;;;;;5.53;4.90;;;19.30;16.10;;;;;;4993714;28;20266;-68
2023/07/11 04:03:31;;;;;;;7.27;5.80;;;19.30;16.10;;;;;;4993065;28;20320;-68
2023/07/11 04:05:57;;;;;;;8.77;6.00;;;19.40;16.20;;;;;;4993465;28;20192;-68
2023/07/11 04:08:23;;;;;;;6.07;4.67;;;19.50;16.20;;;;;;4993417;28;20192;-68
2023/07/11 04:10:48;;;;;;;7.00;5.17;;;19.50;16.10;;;;;;4993093;28;20223;-68
2023/07/11 04:13:14;;;;;;;5.60;4.90;;;19.50;16.20;;;;;;4992730;28;20200;-68
2023/07/11 04:15:39;;;;;;;5.10;4.60;;;19.50;15.60;;;;;;4991911;28;20185;-68
2023/07/11 04:18:05;;;;;;;7.30;5.13;;;19.60;15.40;;;;;;4993272;28;20192;-68
2023/07/11 04:20:30;;;;;;;6.80;5.20;;;19.60;15.80;;;;;;4992762;28;20251;-69
2023/07/11 04:22:56;;;;;;;5.37;4.20;;;19.60;15.00;;;;;;4991436;28;20565;-69
2023/07/11 04:25:21;;;;;;;5.80;4.90;;;19.70;15.10;;;;;;4992951;28;20199;-68
2023/07/11 04:27:47;;;;;;;7.33;4.70;;;19.80;15.30;;;;;;4993037;28;20169;-69
2023/07/11 04:30:13;;;;;;;6.07;5.17;;;19.90;15.30;;;;;;4992812;28;20703;-69
2023/07/11 04:32:38;;;;;;;9.90;5.70;;;19.90;15.00;;;;;;4992619;28;20654;-69
2023/07/11 04:35:10;;;;;;;7.10;6.13;;;19.80;15.40;;;;;;4992864;28;20423;-68
2023/07/11 04:37:35;;;;;;;7.10;5.40;;;20.00;15.10;;;;;;4992692;28;20231;-68
2023/07/11 04:40:01;;;;;;;6.13;5.20;;;20.20;14.60;;;;;;4992657;28;20503;-68
2023/07/11 04:42:26;;;;;;;6.00;4.73;;;20.40;13.80;;;;;;4992204;28;20225;-69
2023/07/11 04:44:52;;;;;;;4.90;4.43;;;20.60;12.80;;;;;;4992518;28;20184;-67
2023/07/11 04:47:17;;;;;;;5.40;4.90;;;20.70;13.20;;;;;;4991521;28;20259;-68
2023/07/11 04:49:43;;;;;;;6.70;4.80;;;20.60;12.90;;;;;;4990633;28;20267;-70
2023/07/11 04:52:08;;;;;;;9.50;5.80;;;20.70;13.10;;;;;;4992427;28;20194;-71
2023/07/11 04:54:35;;;;;;;5.80;4.63;;;20.90;13.20;;;;;;4992208;28;20235;-71
2023/07/11 04:57:02;;;;;;;8.43;5.07;;;21.00;13.40;;;;;;4992769;28;20184;-71
2023/07/11 04:59:27;;;;;;;5.33;4.53;;;21.10;12.90;;;;;;4992730;28;20493;-71
2023/07/11 05:01:53;;;;;;;6.07;5.50;;;21.20;13.30;;;;;;4992377;28;20404;-71
2023/07/11 05:04:18;;;;;;;5.90;5.40;;;21.30;12.90;;;;;;4992508;28;20674;-71
2023/07/11 05:06:44;;;;;;;8.43;5.83;;;21.30;11.70;;;;;;4992708;28;20204;-71
2023/07/11 05:09:10;;;;;;;6.50;5.53;;;21.40;11.50;;;;;;4992684;28;20530;-71
2023/07/11 05:11:36;;;;;;;7.07;5.43;;;21.50;11.00;;;;;;4990796;28;20487;-71
2023/07/11 05:14:03;;;;;;;7.37;5.30;;;21.70;10.50;;;;;;4992804;28;20255;-71
2023/07/11 05:16:31;;;;;;;6.00;5.17;;;21.70;10.60;;;;;;4992783;28;20470;-71
2023/07/11 05:18:58;;;;;;;8.07;5.70;;;21.90;10.40;;;;;;4992733;28;20913;-71
2023/07/11 05:21:24;;;;;;;7.03;4.70;;;22.00;9.90;;;;;;4992387;28;20467;-71
2023/07/11 05:23:49;;;;;;;7.50;6.17;;;22.20;9.20;;;;;;4992246;28;20933;-71
2023/07/11 05:26:17;;;;;;;6.73;6.03;;;22.30;8.60;;;;;;4992093;28;20235;-71
2023/07/11 05:28:43;;;;;;;7.07;5.57;;;22.50;7.80;;;;;;4992326;28;20283;-70
2023/07/11 05:31:09;;;;;;;7.90;5.97;;;22.50;7.20;;;;;;4992413;28;20443;-70
2023/07/11 05:33:35;;;;;;;5.87;4.40;;;22.50;7.90;;;;;;4991827;28;20929;-70
2023/07/11 05:38:49;;;;;;;7.57;6.07;;;22.90;8.60;;;;;;4992412;28;20660;-71
2023/07/11 05:41:15;;;;;;;6.07;5.57;;;23.50;7.40;;;;;;4992096;28;20471;-71
2023/07/11 05:43:41;;;;;;;5.77;5.17;;;25.00;4.40;;;;;;4991791;28;20427;-72
2023/07/11 05:46:06;;;;;;;20.33;9.30;;;27.00;1.00;;;;;;4991900;28;20227;-72
2023/07/11 05:48:32;;;;;;;20.93;10.87;;;29.00;1.00;;;;;;4991839;28;20185;-71
2023/07/11 05:51:09;;;;;;;9.77;7.20;;;30.30;1.00;;;;;;4991862;28;20247;-71
2023/07/11 05:53:35;;;;;;;7.57;6.97;;;31.70;1.00;;;;;;4993421;28;20206;-71
2023/07/11 05:56:01;;;;;;;7.40;6.70;;;32.90;1.00;;;;;;4991620;28;20585;-71
2023/07/11 05:58:28;;;;;;;7.47;6.70;;;34.10;1.00;;;;;;4991802;28;20957;-71
2023/07/11 06:00:54;;;;;;;7.77;7.03;;;34.30;1.00;;;;;;4994944;28;20519;-71
2023/07/11 06:03:23;;;;;;;10.00;7.20;;;34.50;1.00;;;;;;4995382;28;21013;-71
2023/07/11 06:05:49;;;;;;;8.90;7.80;;;35.70;1.00;;;;;;4995353;28;20439;-71
2023/07/11 06:08:15;;;;;;;8.27;7.67;;;36.80;1.00;;;;;;4995227;28;20442;-71
2023/07/11 06:10:42;;;;;;;17.43;7.20;;;37.10;1.00;;;;;;4996632;28;20467;-71
2023/07/11 06:13:11;;;;;;;7.17;6.67;;;37.30;1.00;;;;;;4992795;28;20412;-72
2023/07/11 06:15:36;;;;;;;8.63;7.73;;;38.10;1.00;;;;;;4974743;28;20421;-72
2023/07/11 06:18:02;;;;;;;7.80;7.00;;;38.60;1.00;;;;;;4974729;28;20424;-72
2023/07/11 06:20:28;;;;;;;8.87;7.67;;;38.40;1.00;;;;;;4975883;28;20201;-72
2023/07/11 06:22:54;;;;;;;9.30;8.40;;;37.90;1.00;;;;;;4975722;28;20466;-71
2023/07/11 06:25:20;;;;;;;8.47;7.70;;;37.70;1.00;;;;;;4992123;28;20216;-70
2023/07/11 06:27:46;;;;;;;8.93;8.03;;;38.10;1.00;;;;;;4995479;28;20458;-71
2023/07/11 06:30:12;;;;;;;9.00;8.13;;;38.50;1.00;;;;;;4995389;28;20626;-71
2023/07/11 06:32:38;;;;;;;7.57;6.87;;;39.40;1.00;;;;;;4995016;28;20558;-71
2023/07/11 06:35:04;;;;;;;8.00;7.17;;;39.60;1.00;;;;;;4994915;28;20435;-71
2023/07/11 06:37:29;;;;;;;7.67;6.97;;;39.70;1.00;;;;;;4995209;28;20635;-70
2023/07/11 06:39:55;;;;;;;7.63;7.03;;;40.40;1.00;;;;;;4987359;28;20569;-71
2023/07/11 06:42:20;;;;;;;8.53;7.73;;;40.50;1.00;;;;;;4990528;28;20264;-71
2023/07/11 06:44:46;;;;;;;11.17;7.87;;;40.00;1.00;;;;;;4980694;28;20220;-71
2023/07/11 06:47:11;;;;;;;7.17;6.57;;;40.20;1.00;;;;;;4977959;28;20462;-71
2023/07/11 06:49:37;;;;;;;7.47;6.80;;;40.30;1.00;;;;;;4980137;28;20288;-72
2023/07/11 06:52:03;;;;;;;7.23;6.63;;;40.40;1.00;;;;;;4971832;28;20500;-71
2023/07/11 06:54:29;;;;;;;9.33;8.57;;;41.00;1.00;;;;;;4987888;28;20560;-72
2023/07/11 06:56:57;;;;;;;7.03;6.50;;;41.00;1.00;;;;;;4990819;28;20638;-71
2023/07/11 06:59:23;;;;;;;8.90;8.20;;;40.70;1.00;;;;;;4991107;28;20443;-71
2023/07/11 07:01:49;;;;;;;6.90;6.40;;;41.10;1.00;;;;;;4991848;28;20424;-71
2023/07/11 07:04:15;;;;;;;8.90;7.50;;;40.90;1.00;;;;;;4990615;28;20558;-72
2023/07/11 07:06:44;;;;;;;8.67;7.60;;;41.40;1.00;;;;;;4990872;28;20499;-70
2023/07/11 07:09:11;;;;;;;7.30;6.67;;;42.00;1.00;;;;;;4988390;28;20188;-71
2023/07/11 07:11:38;;;;;;;8.40;7.60;;;42.50;1.00;;;;;;4988113;28;20486;-70
2023/07/11 07:14:08;;;;;;;7.33;6.73;;;41.90;1.00;;;;;;4984440;28;20436;-71
2023/07/11 07:16:36;;;;;;;6.80;6.10;;;40.70;1.00;;;;;;4979283;28;20507;-69
2023/07/11 07:19:03;;;;;;;5.93;5.53;;;41.30;1.00;;;;;;4972780;28;20495;-69
2023/07/11 07:21:29;;;;;;;7.77;7.07;;;41.30;1.00;;;;;;4985992;28;20814;-70
2023/07/11 07:23:55;;;;;;;7.97;7.27;;;41.80;1.00;;;;;;4990942;28;20559;-69
2023/07/11 07:26:21;;;;;;;7.87;7.20;;;42.90;1.00;;;;;;4990532;28;20857;-69
2023/07/11 07:28:46;;;;;;;7.73;6.87;;;42.80;1.00;;;;;;4974273;28;20263;-69
2023/07/11 07:31:12;;;;;;;9.33;7.07;;;43.20;1.00;;;;;;4981778;28;20713;-70
2023/07/11 07:33:38;;;;;;;7.30;6.60;;;43.70;1.00;;;;;;4977616;28;20192;-71
2023/07/11 07:36:05;;;;;;;8.23;7.53;;;44.10;1.00;;;;;;4985815;28;20239;-71
2023/07/11 07:38:32;;;;;;;7.80;7.17;;;44.30;1.00;;;;;;4993428;28;20212;-70
2023/07/11 07:41:01;;;;;;;7.20;6.60;;;44.70;1.00;;;;;;4993502;28;20464;-69
2023/07/11 07:43:29;;;;;;;6.33;5.93;;;43.50;1.00;;;;;;4993476;28;20416;-69
2023/07/11 07:45:56;;;;;;;8.60;7.80;;;44.00;1.00;;;;;;4993395;28;20858;-69
2023/07/11 07:48:22;;;;;;;10.23;8.27;;;44.80;1.00;;;;;;4993661;28;20823;-70
2023/07/11 07:50:48;;;;;;;8.07;7.47;;;45.20;1.00;;;;;;4993328;28;20509;-70
2023/07/11 07:53:15;;;;;;;6.97;6.47;;;45.90;1.00;;;;;;4993066;28;20477;-69
2023/07/11 07:55:42;;;;;;;8.07;6.43;;;46.10;1.00;;;;;;4993386;28;20416;-68
2023/07/11 07:58:08;;;;;;;7.43;6.73;;;45.00;1.00;;;;;;4993453;28;20430;-69
2023/07/11 08:00:33;;;;;;;9.27;7.13;;;44.70;1.00;;;;;;4992989;28;20468;-69
2023/07/11 08:02:59;;;;;;;7.27;6.77;;;44.30;1.00;;;;;;4993508;28;20424;-70
2023/07/11 08:05:25;;;;;;;7.43;6.83;;;44.20;1.00;;;;;;4993347;28;20180;-70
2023/07/11 08:07:51;;;;;;;10.90;9.33;;;45.80;1.00;;;;;;4993272;28;20259;-70
2023/07/11 08:10:17;;;;;;;7.13;6.63;;;46.50;1.00;;;;;;5015828;23;20550;-73
2023/07/11 08:12:43;;;;;;;8.27;7.47;;;47.70;1.00;;;;;;4992741;28;20184;-72
2023/07/11 08:15:11;;;;;;;8.07;7.37;;;48.50;1.00;;;;;;4991929;28;20412;-72
2023/07/11 08:17:45;;;;;;;8.70;7.90;;;46.70;1.00;;;;;;4992069;28;20412;-74
2023/07/11 08:20:11;;;;;;;8.30;6.73;;;47.00;1.00;;;;;;4991714;28;20614;-73
2023/07/11 08:22:37;;;;;;;7.87;7.10;;;46.90;1.00;;;;;;4992605;28;20427;-75
2023/07/11 08:25:03;;;;;;;8.23;7.10;;;46.90;1.00;;;;;;4991735;28;20454;-73
2023/07/11 08:27:29;;;;;;;7.40;6.80;;;46.30;1.00;;;;;;4992776;28;20924;-73
2023/07/11 08:29:54;;;;;;;7.30;6.60;;;46.90;1.00;;;;;;4992632;28;20213;-73
2023/07/11 08:32:31;;;;;;;13.53;8.83;;;47.70;1.00;;;;;;4992986;28;20704;-74
2023/07/11 08:34:57;;;;;;;8.50;7.80;;;47.30;1.00;;;;;;4975927;28;20185;-74
2023/07/11 08:37:22;;;;;;;8.60;7.90;;;48.00;1.00;;;;;;4983564;28;20816;-74
2023/07/11 08:39:51;;;;;;;7.57;7.07;;;48.30;1.00;;;;;;4987770;28;20244;-72
2023/07/11 08:42:34;;;;;;;9.57;8.67;;;49.00;1.00;;;;;;4971894;28;20272;-74
2023/07/11 08:45:22;;;;;;;7.63;7.13;;;49.20;1.00;;;;;;4981230;28;20435;-72
2023/07/11 08:48:17;;;;;;;7.53;7.00;;;49.50;1.00;;;;;;4973223;28;20744;-73
2023/07/11 08:51:00;;;;;;;7.80;7.20;;;48.70;1.00;;;;;;4966467;28;20548;-74
2023/07/11 08:53:31;;;;;;;9.03;8.33;;;47.50;1.00;;;;;;4987633;28;20416;-73
2023/07/11 08:56:28;;;;;;;7.90;7.40;;;48.30;1.00;;;;;;4973935;28;20432;-74
2023/07/11 08:58:55;;;;;;;6.93;6.47;;;46.90;1.00;;;;;;4963911;28;20438;-74
2023/07/11 09:01:33;;;;;;;7.80;7.20;;;47.20;1.00;;;;;;4992959;28;20471;-76
2023/07/11 09:04:00;;;;;;;7.87;7.07;;;47.50;1.00;;;;;;4984713;28;20499;-73
2023/07/11 09:06:33;;;;;;;7.20;6.70;;;47.80;1.00;;;;;;4993476;28;20476;-72
2023/07/11 09:08:59;;;;;;;9.27;8.60;;;48.50;1.00;;;;;;4993140;28;20897;-74
2023/07/11 09:11:37;;;;;;;10.17;9.23;;;45.50;1.00;;;;;;4991895;28;20455;-74
2023/07/11 09:14:37;;;;;;;8.63;7.70;;;45.20;1.00;;;;;;4992857;28;20478;-74
2023/07/11 09:17:14;;;;;;;8.83;7.97;;;44.30;1.00;;;;;;4992134;28;20435;-71
2023/07/11 09:20:02;;;;;;;6.87;6.37;;;43.60;1.00;;;;;;4989856;28;20443;-70
2023/07/11 09:23:26;;;;;;;7.30;6.70;;;41.30;1.00;;;;;;4972240;28;20529;-71
2023/07/11 09:25:57;;;;;;;10.53;9.57;;;39.50;1.00;;;;;;4955398;28;20433;-70
2023/07/11 09:28:26;;;;;;;10.27;7.60;;;37.90;1.00;;;;;;4972729;28;20420;-70
2023/07/11 09:30:58;;;;;;;14.93;8.00;;;37.20;1.00;;;;;;4972703;28;20441;-70
2023/07/11 09:33:30;;;;;;;8.17;7.37;;;36.50;1.00;;;;;;4972393;28;20408;-70
2023/07/11 09:35:57;;;;;;;8.27;7.40;;;35.80;1.00;;;;;;4994755;28;20441;-71
2023/07/11 09:38:40;;;;;;;7.80;7.10;;;35.40;1.00;;;;;;4996332;28;20419;-73
2023/07/11 09:41:19;;;;;;;7.57;6.93;;;35.10;1.00;;;;;;4995590;28;20873;-73
2023/07/11 09:43:45;;;;;;;8.60;7.70;;;34.90;1.00;;;;;;4996833;28;20416;-73
2023/07/11 09:46:15;;;;;;;8.67;7.97;;;34.50;1.00;;;;;;4997390;28;20952;-73
2023/07/11 09:48:44;;;;;;;9.23;8.47;;;34.30;1.00;;;;;;4996762;28;20662;-73
2023/07/11 09:51:24;;;;;;;7.73;7.03;;;34.20;1.00;;;;;;4996614;28;20463;-73
2023/07/11 09:53:53;;;;;;;8.33;7.70;;;34.10;1.00;;;;;;4987728;28;20977;-73
2023/07/11 09:56:20;;;;;;;8.03;7.27;;;33.80;1.00;;;;;;4977533;28;20435;-73
2023/07/11 09:58:51;;;;;;;8.20;7.40;;;34.00;1.00;;;;;;4978830;28;20423;-73
2023/07/11 10:01:37;;;;;;;8.03;7.43;;;34.10;1.00;;;;;;4996014;28;20891;-73
2023/07/11 10:04:06;;;;;;;8.30;7.67;;;34.10;1.00;;;;;;4996167;28;20431;-72
2023/07/11 10:06:41;;;;;;;8.47;7.87;;;34.00;1.00;;;;;;4996332;28;20408;-73
2023/07/11 10:09:24;;;;;;;7.50;6.90;;;34.00;1.00;;;;;;4994966;28;20418;-73
2023/07/11 10:11:56;;;;;;;7.63;6.93;;;34.10;1.00;;;;;;4987106;28;20462;-73
2023/07/11 10:14:32;;;;;;;8.87;8.17;;;34.20;1.00;;;;;;4994831;28;20522;-73
2023/07/11 10:16:58;;;;;;;8.47;7.77;;;34.20;1.00;;;;;;4994201;28;20434;-73
2023/07/11 10:19:25;;;;;;;9.37;8.60;;;34.30;1.00;;;;;;4995585;28;20412;-73
2023/07/11 10:21:52;;;;;;;14.57;11.63;;;34.40;1.00;;;;;;4995164;28;20216;-73
2023/07/11 10:24:22;;;;;;;10.60;7.80;;;34.50;1.00;;;;;;4995305;28;20416;-73
2023/07/11 10:26:54;;;;;;;10.73;8.80;;;34.60;1.00;;;;;;4995263;28;20412;-73
2023/07/11 10:29:23;;;;;;;7.77;7.20;;;34.90;1.00;;;;;;4995229;28;20416;-73
2023/07/11 10:32:00;;;;;;;8.40;7.80;;;34.90;1.00;;;;;;4995122;28;20436;-72
2023/07/11 10:34:34;;;;;;;8.13;7.33;;;34.80;1.00;;;;;;4995025;28;20407;-73
2023/07/11 10:37:13;;;;;;;7.67;7.03;;;34.70;1.00;;;;;;4994757;28;20770;-73
2023/07/11 10:39:49;;;;;;;9.57;7.50;;;34.90;1.00;;;;;;4993566;28;20419;-72
2023/07/11 10:42:37;;;;;;;8.13;7.63;;;35.10;1.00;;;;;;4993227;28;20435;-70
2023/07/11 10:45:23;;;;;;;8.33;7.43;;;34.90;1.00;;;;;;4994026;28;20420;-71
2023/07/11 10:48:10;;;;;;;7.80;7.00;;;34.90;1.00;;;;;;4994669;28;20518;-70
2023/07/11 10:50:42;;;;;;;8.13;7.40;;;35.10;1.00;;;;;;4994571;28;20431;-71
2023/07/11 10:53:20;;;;;;;8.73;7.97;;;35.30;1.00;;;;;;4994532;28;20505;-71
2023/07/11 10:55:54;;;;;;;9.40;7.87;;;34.90;1.00;;;;;;5009658;28;20412;-71
2023/07/11 10:58:23;;;;;;;7.90;7.37;;;35.10;1.00;;;;;;4994138;28;20435;-71
2023/07/11 11:01:00;;;;;;;8.03;7.53;;;35.30;1.00;;;;;;4994217;28;21058;-71
2023/07/11 11:03:38;;;;;;;8.43;7.80;;;35.20;1.00;;;;;;4994236;28;20438;-71
2023/07/11 11:06:12;;;;;;;8.40;7.70;;;35.30;1.00;;;;;;4994613;28;20419;-71
2023/07/11 11:09:10;;;;;;;9.10;8.40;;;35.40;1.00;;;;;;4993269;28;20458;-71
2023/07/11 11:11:41;;;;;;;10.20;8.43;;;35.10;1.00;;;;;;4990864;28;20474;-71
2023/07/11 11:14:36;;;;;;;14.40;8.50;;;35.10;1.00;;;;;;4994406;28;20894;-70
2023/07/11 11:17:08;;;;;;;8.70;8.03;;;35.50;1.00;;;;;;4994036;28;20408;-71
2023/07/11 11:19:39;;;;;;;8.33;7.73;;;35.50;1.00;;;;;;4974779;28;20918;-70
2023/07/11 11:22:08;;;;;;;13.30;7.30;;;35.40;1.00;;;;;;4974601;28;20490;-70
2023/07/11 11:24:39;;;;;;;8.50;7.60;;;35.40;1.00;;;;;;4973443;28;20428;-71
2023/07/11 11:27:29;;;;;;;10.33;9.33;;;35.60;1.00;;;;;;4975661;28;20432;-71
2023/07/11 11:30:25;;;;;;;8.23;7.63;;;35.70;1.00;;;;;;4989594;28;20456;-70
2023/07/11 11:33:12;;;;;;;9.73;9.03;;;35.70;1.00;;;;;;4998516;28;20432;-70
2023/07/11 11:35:58;;;;;;;8.17;7.50;;;35.70;1.00;;;;;;4994058;28;20499;-70
2023/07/11 11:38:33;;;;;;;8.63;7.90;;;36.00;1.00;;;;;;5008884;28;20444;-70
2023/07/11 11:41:04;;;;;;;9.37;8.57;;;35.90;1.00;;;;;;4993680;28;20455;-71
2023/07/11 11:43:29;;;;;;;8.30;7.53;;;35.80;1.00;;;;;;4992495;28;20416;-70
2023/07/11 11:46:00;;;;;;;9.20;8.50;;;35.90;1.00;;;;;;4993825;28;20782;-69
2023/07/11 11:48:30;;;;;;;10.20;9.10;;;35.80;1.00;;;;;;4993517;28;20682;-69
2023/07/11 11:50:57;;;;;;;10.90;8.40;;;35.80;1.00;;;;;;4992324;28;20530;-69
2023/07/11 11:53:46;;;;;;;9.27;8.57;;;35.60;1.00;;;;;;4993175;28;20429;-70
2023/07/11 11:56:17;;;;;;;14.43;9.17;;;35.90;1.00;;;;;;4993552;28;20439;-69
2023/07/11 11:59:09;;;;;;;9.87;8.93;;;36.10;1.00;;;;;;4992693;28;20466;-69
2023/07/11 12:01:35;;;;;;;7.83;7.23;;;36.20;1.00;;;;;;4992457;28;20522;-70
2023/07/11 12:04:01;;;;;;;9.00;8.20;;;36.10;1.00;;;;;;4993145;28;20420;-69
2023/07/11 12:06:41;;;;;;;8.87;8.23;;;36.30;1.00;;;;;;4993009;28;20643;-70
2023/07/11 12:09:16;;;;;;;9.87;8.77;;;36.30;1.00;;;;;;4993107;28;20765;-70
2023/07/11 12:12:05;;;;;;;9.57;8.77;;;36.40;1.00;;;;;;4992877;28;20533;-70
2023/07/11 12:14:39;;;;;;;9.20;8.43;;;36.60;1.00;;;;;;4992762;28;20963;-70
2023/07/11 12:17:45;;;;;;;10.47;8.70;;;36.70;1.00;;;;;;4992753;28;20435;-69
2023/07/11 12:20:18;;;;;;;8.20;7.70;;;36.30;1.00;;;;;;4992499;28;20467;-70
2023/07/11 12:22:44;;;;;;;9.17;8.47;;;36.40;1.00;;;;;;4993484;28;20813;-70
2023/07/11 12:25:17;;;;;;;17.20;8.90;;;36.60;1.00;;;;;;4992832;28;20467;-69
2023/07/11 12:27:45;;;;;;;8.93;8.03;;;36.70;1.00;;;;;;4992956;28;20184;-70
2023/07/11 12:30:13;;;;;;;8.57;7.97;;;36.70;1.00;;;;;;4992733;28;20444;-69
2023/07/11 12:32:43;;;;;;;10.03;8.53;;;36.40;1.00;;;;;;4992598;28;20419;-70
2023/07/11 12:35:08;;;;;;;8.60;7.90;;;36.30;1.00;;;;;;4992557;28;20859;-70
2023/07/11 12:38:02;;;;;;;9.70;8.70;;;36.20;1.00;;;;;;4992791;28;20464;-71
2023/07/11 12:40:45;;;;;;;9.33;8.53;;;36.40;1.00;;;;;;4992422;28;20805;-69
2023/07/11 12:43:22;;;;;;;10.80;8.77;;;36.50;1.00;;;;;;4990843;28;20960;-69
2023/07/11 12:45:54;;;;;;;11.73;9.43;;;36.10;1.00;;;;;;4989968;28;20435;-69
2023/07/11 12:48:32;;;;;;;11.40;9.27;;;36.00;1.00;;;;;;4992451;28;20419;-70
2023/07/11 12:51:04;;;;;;;9.33;8.60;;;36.20;1.00;;;;;;4990794;28;20470;-70
2023/07/11 12:53:34;;;;;;;9.00;8.30;;;36.20;1.00;;;;;;4991476;28;20539;-69
2023/07/11 12:56:00;;;;;;;10.20;8.50;;;36.10;1.00;;;;;;4990984;28;20485;-69
2023/07/11 12:58:31;;;;;;;9.70;9.00;;;36.10;1.00;;;;;;4979005;28;20425;-69
2023/07/11 13:00:59;;;;;;;10.20;8.27;;;36.30;1.00;;;;;;4971148;28;20222;-70
2023/07/11 13:03:37;;;;;;;8.60;8.10;;;36.30;1.00;;;;;;4984429;28;20816;-71
2023/07/11 13:06:25;;;;;;;9.20;8.40;;;36.50;1.00;;;;;;4992176;28;20857;-72
2023/07/11 13:08:51;;;;;;;9.57;8.77;;;36.30;1.00;;;;;;4990483;28;20497;-72